createdAt,value
2017-12-26T00:01:02.280Z,0
2017-12-26T00:02:11.972Z,0
2017-12-26T00:03:21.921Z,0
2017-12-26T00:04:31.872Z,0
2017-12-26T00:05:41.556Z,0
2017-12-26T00:06:51.519Z,0
2017-12-26T00:08:00.956Z,0
2017-12-26T00:09:10.909Z,0
2017-12-26T00:10:20.607Z,0
2017-12-26T00:11:30.566Z,0
2017-12-26T00:12:40.258Z,0
2017-12-26T00:13:49.941Z,0
2017-12-26T00:14:59.701Z,0
2017-12-26T00:16:09.653Z,0
2017-12-26T00:17:19.609Z,0
2017-12-26T00:18:29.572Z,0
2017-12-26T00:19:39.516Z,0
2017-12-26T00:20:49.522Z,0
2017-12-26T00:21:59.496Z,0
2017-12-26T00:23:09.438Z,0
2017-12-26T00:24:19.398Z,0
2017-12-26T00:25:29.349Z,0
2017-12-26T00:26:39.299Z,0
2017-12-26T00:27:49.260Z,0
2017-12-26T00:28:58.957Z,0
2017-12-26T00:30:08.925Z,0
2017-12-26T00:31:18.630Z,0
2017-12-26T00:32:28.587Z,0
2017-12-26T00:33:38.562Z,0
2017-12-26T00:34:48.519Z,0
2017-12-26T00:35:58.209Z,0
2017-12-26T00:37:08.167Z,0
2017-12-26T00:38:18.131Z,0
2017-12-26T00:39:28.086Z,0
2017-12-26T00:40:37.547Z,0
2017-12-26T00:41:47.533Z,0
2017-12-26T00:42:57.494Z,0
2017-12-26T00:44:07.443Z,0
2017-12-26T00:45:17.396Z,0
2017-12-26T00:46:27.093Z,0
2017-12-26T00:47:37.043Z,0
2017-12-26T00:48:46.993Z,0
2017-12-26T00:49:56.950Z,0
2017-12-26T00:51:06.648Z,0
2017-12-26T00:52:16.349Z,0
2017-12-26T00:53:26.291Z,0
2017-12-26T00:54:36.248Z,0
2017-12-26T00:55:45.940Z,0
2017-12-26T00:56:55.625Z,0
2017-12-26T00:58:05.581Z,0
2017-12-26T00:59:15.519Z,0
2017-12-26T01:00:25.479Z,0
2017-12-26T01:01:35.170Z,0
2017-12-26T01:02:44.865Z,0
2017-12-26T01:03:54.819Z,0
2017-12-26T01:05:04.757Z,0
2017-12-26T01:06:14.478Z,0
2017-12-26T01:07:24.434Z,0
2017-12-26T01:08:34.395Z,0
2017-12-26T01:09:44.085Z,0
2017-12-26T01:10:54.046Z,0
2017-12-26T01:12:03.470Z,0
2017-12-26T01:13:13.422Z,0
2017-12-26T01:14:23.132Z,0
2017-12-26T01:15:32.831Z,0
2017-12-26T01:16:42.773Z,0
2017-12-26T01:17:52.719Z,0
2017-12-26T01:19:02.409Z,0
2017-12-26T01:20:12.355Z,0
2017-12-26T01:21:22.050Z,0
2017-12-26T01:22:31.992Z,0
2017-12-26T01:23:41.939Z,0
2017-12-26T01:24:51.896Z,0
2017-12-26T01:26:01.847Z,0
2017-12-26T01:27:11.543Z,0
2017-12-26T01:28:21.494Z,0
2017-12-26T01:29:31.436Z,0
2017-12-26T01:30:41.382Z,0
2017-12-26T01:31:51.343Z,0
2017-12-26T01:33:01.038Z,0
2017-12-26T01:34:10.985Z,0
2017-12-26T01:35:20.948Z,0
2017-12-26T01:36:30.894Z,0
2017-12-26T01:37:40.848Z,0
2017-12-26T01:38:50.786Z,0
2017-12-26T01:40:00.497Z,0
2017-12-26T01:41:10.454Z,0
2017-12-26T01:42:20.142Z,0
2017-12-26T01:43:29.841Z,0
2017-12-26T01:44:39.779Z,0
2017-12-26T01:45:49.479Z,0
2017-12-26T01:46:59.176Z,0
2017-12-26T01:48:08.611Z,0
2017-12-26T01:49:18.610Z,0
2017-12-26T01:50:28.308Z,0
2017-12-26T01:51:38.247Z,0
2017-12-26T01:52:48.198Z,0
2017-12-26T01:53:58.138Z,0
2017-12-26T01:55:07.577Z,0
2017-12-26T01:56:17.516Z,0
2017-12-26T01:57:27.255Z,0
2017-12-26T01:58:37.221Z,0
2017-12-26T01:59:47.187Z,0
2017-12-26T02:00:57.122Z,0
2017-12-26T02:02:06.829Z,0
2017-12-26T02:03:16.790Z,0
2017-12-26T02:04:26.971Z,0
2017-12-26T02:05:36.930Z,0
2017-12-26T02:06:46.623Z,0
2017-12-26T02:07:56.573Z,0
2017-12-26T02:09:06.266Z,0
2017-12-26T02:10:16.228Z,0
2017-12-26T02:11:25.929Z,0
2017-12-26T02:12:35.904Z,0
2017-12-26T02:13:45.592Z,0
2017-12-26T02:14:55.533Z,0
2017-12-26T02:16:05.485Z,0
2017-12-26T02:17:15.172Z,0
2017-12-26T02:18:25.126Z,0
2017-12-26T02:19:34.826Z,0
2017-12-26T02:20:44.783Z,0
2017-12-26T02:21:54.739Z,0
2017-12-26T02:23:04.424Z,0
2017-12-26T02:24:14.379Z,0
2017-12-26T02:25:24.368Z,0
2017-12-26T02:26:34.303Z,0
2017-12-26T02:27:43.743Z,0
2017-12-26T02:28:52.912Z,0
2017-12-26T02:30:02.609Z,0
2017-12-26T02:31:12.308Z,0
2017-12-26T02:32:22.250Z,0
2017-12-26T02:33:32.205Z,0
2017-12-26T02:34:41.909Z,0
2017-12-26T02:35:51.864Z,0
2017-12-26T02:37:01.817Z,0
2017-12-26T02:38:11.524Z,0
2017-12-26T02:39:21.492Z,0
2017-12-26T02:40:31.447Z,0
2017-12-26T02:41:41.135Z,0
2017-12-26T02:42:51.093Z,0
2017-12-26T02:44:01.049Z,0
2017-12-26T02:45:11.016Z,0
2017-12-26T02:46:20.707Z,0
2017-12-26T02:47:30.405Z,0
2017-12-26T02:48:40.125Z,0
2017-12-26T02:49:50.075Z,0
2017-12-26T02:51:00.036Z,0
2017-12-26T02:52:10.032Z,0
2017-12-26T02:53:19.980Z,0
2017-12-26T02:54:29.686Z,0
2017-12-26T02:55:39.864Z,0
2017-12-26T02:56:49.573Z,0
2017-12-26T02:57:59.521Z,0
2017-12-26T02:59:09.468Z,0
2017-12-26T03:00:19.169Z,0
2017-12-26T03:01:28.859Z,0
2017-12-26T03:02:38.797Z,0
2017-12-26T03:03:48.744Z,0
2017-12-26T03:04:58.698Z,0
2017-12-26T03:06:08.389Z,0
2017-12-26T03:07:18.357Z,0
2017-12-26T03:08:28.302Z,0
2017-12-26T03:09:38.030Z,0
2017-12-26T03:10:47.964Z,0
2017-12-26T03:11:57.648Z,0
2017-12-26T03:13:07.342Z,0
2017-12-26T03:14:17.044Z,0
2017-12-26T03:15:26.991Z,0
2017-12-26T03:16:36.710Z,0
2017-12-26T03:17:46.662Z,0
2017-12-26T03:18:56.604Z,0
2017-12-26T03:20:06.312Z,0
2017-12-26T03:21:16.267Z,0
2017-12-26T03:22:25.956Z,0
2017-12-26T03:23:35.922Z,0
2017-12-26T03:24:45.863Z,0
2017-12-26T03:25:55.812Z,0
2017-12-26T03:27:05.754Z,0
2017-12-26T03:28:15.705Z,0
2017-12-26T03:29:25.710Z,0
2017-12-26T03:30:35.659Z,0
2017-12-26T03:31:45.347Z,0
2017-12-26T03:32:55.315Z,0
2017-12-26T03:34:05.251Z,0
2017-12-26T03:35:15.209Z,0
2017-12-26T03:36:24.888Z,0
2017-12-26T03:37:34.578Z,0
2017-12-26T03:38:44.518Z,0
2017-12-26T03:39:54.200Z,0
2017-12-26T03:41:04.210Z,0
2017-12-26T03:42:13.899Z,0
2017-12-26T03:43:23.580Z,0
2017-12-26T03:44:33.275Z,0
2017-12-26T03:45:43.212Z,0
2017-12-26T03:46:52.901Z,0
2017-12-26T03:48:02.839Z,0
2017-12-26T03:49:12.781Z,0
2017-12-26T03:50:22.717Z,0
2017-12-26T03:51:32.675Z,0
2017-12-26T03:52:42.631Z,0
2017-12-26T03:53:52.574Z,0
2017-12-26T03:55:02.519Z,0
2017-12-26T03:56:12.208Z,0
2017-12-26T03:57:22.161Z,0
2017-12-26T03:58:31.849Z,0
2017-12-26T03:59:41.795Z,0
2017-12-26T04:00:51.479Z,0
2017-12-26T04:02:01.472Z,0
2017-12-26T04:03:11.173Z,0
2017-12-26T04:04:20.869Z,0
2017-12-26T04:05:30.569Z,0
2017-12-26T04:06:40.249Z,0
2017-12-26T04:07:50.195Z,0
2017-12-26T04:09:00.138Z,0
2017-12-26T04:10:10.088Z,0
2017-12-26T04:11:20.032Z,0
2017-12-26T04:12:29.968Z,0
2017-12-26T04:13:39.922Z,0
2017-12-26T04:14:49.628Z,0
2017-12-26T04:15:59.571Z,0
2017-12-26T04:17:09.516Z,0
2017-12-26T04:18:19.203Z,0
2017-12-26T04:19:28.885Z,0
2017-12-26T04:20:38.830Z,0
2017-12-26T04:21:48.771Z,0
2017-12-26T04:22:58.467Z,0
2017-12-26T04:24:07.889Z,0
2017-12-26T04:25:17.576Z,0
2017-12-26T04:26:27.271Z,0
2017-12-26T04:27:37.014Z,0
2017-12-26T04:28:46.956Z,0
2017-12-26T04:29:56.902Z,0
2017-12-26T04:31:06.838Z,0
2017-12-26T04:32:16.794Z,0
2017-12-26T04:33:26.475Z,0
2017-12-26T04:34:36.412Z,0
2017-12-26T04:35:46.609Z,0
2017-12-26T04:36:56.907Z,0
2017-12-26T04:38:06.848Z,0
2017-12-26T04:39:16.803Z,0
2017-12-26T04:40:26.746Z,0
2017-12-26T04:41:36.714Z,0
2017-12-26T04:42:46.401Z,0
2017-12-26T04:43:56.352Z,0
2017-12-26T04:45:06.302Z,0
2017-12-26T04:46:16.288Z,0
2017-12-26T04:47:25.973Z,0
2017-12-26T04:48:35.908Z,0
2017-12-26T04:49:45.852Z,0
2017-12-26T04:50:55.796Z,0
2017-12-26T04:52:05.739Z,0
2017-12-26T04:53:15.945Z,0
2017-12-26T04:54:25.891Z,0
2017-12-26T04:55:35.581Z,0
2017-12-26T04:56:45.529Z,0
2017-12-26T04:57:55.208Z,0
2017-12-26T04:59:05.201Z,0
2017-12-26T05:00:15.158Z,0
2017-12-26T05:01:24.842Z,0
2017-12-26T05:02:34.550Z,0
2017-12-26T05:03:44.490Z,0
2017-12-26T05:04:54.196Z,0
2017-12-26T05:06:03.887Z,0
2017-12-26T05:07:13.851Z,0
2017-12-26T05:08:23.813Z,0
2017-12-26T05:09:33.509Z,0
2017-12-26T05:10:43.450Z,0
2017-12-26T05:11:53.143Z,0
2017-12-26T05:13:03.332Z,0
2017-12-26T05:14:13.289Z,0
2017-12-26T05:15:23.240Z,0
2017-12-26T05:16:33.251Z,0
2017-12-26T05:17:43.191Z,0
2017-12-26T05:18:53.139Z,0
2017-12-26T05:20:03.102Z,0
2017-12-26T05:21:13.048Z,0
2017-12-26T05:22:23.000Z,0
2017-12-26T05:23:32.950Z,0
2017-12-26T05:24:42.644Z,0
2017-12-26T05:25:52.326Z,0
2017-12-26T05:27:01.770Z,0
2017-12-26T05:28:11.711Z,0
2017-12-26T05:29:21.649Z,0
2017-12-26T05:30:31.595Z,0
2017-12-26T05:31:41.291Z,0
2017-12-26T05:32:51.246Z,0
2017-12-26T05:34:01.199Z,0
2017-12-26T05:35:10.628Z,0
2017-12-26T05:36:20.643Z,0
2017-12-26T05:37:30.588Z,0
2017-12-26T05:38:40.530Z,0
2017-12-26T05:39:50.476Z,0
2017-12-26T05:41:00.156Z,0
2017-12-26T05:42:09.844Z,0
2017-12-26T05:43:19.539Z,0
2017-12-26T05:44:29.490Z,0
2017-12-26T05:45:39.437Z,0
2017-12-26T05:46:49.382Z,0
2017-12-26T05:47:59.070Z,0
2017-12-26T05:49:09.264Z,0
2017-12-26T05:50:19.204Z,0
2017-12-26T05:51:28.880Z,0
2017-12-26T05:52:38.828Z,0
2017-12-26T05:53:48.778Z,0
2017-12-26T05:54:58.731Z,0
2017-12-26T05:56:08.733Z,0
2017-12-26T05:57:18.683Z,0
2017-12-26T05:58:28.372Z,0
2017-12-26T05:59:38.310Z,0
2017-12-26T06:00:48.261Z,0
2017-12-26T06:01:57.941Z,0
2017-12-26T06:03:07.894Z,0
2017-12-26T06:04:17.839Z,0
2017-12-26T06:05:27.802Z,0
2017-12-26T06:06:37.489Z,0
2017-12-26T06:07:47.456Z,0
2017-12-26T06:08:57.401Z,0
2017-12-26T06:10:07.353Z,0
2017-12-26T06:11:17.046Z,0
2017-12-26T06:12:26.982Z,0
2017-12-26T06:13:36.939Z,0
2017-12-26T06:14:46.642Z,0
2017-12-26T06:15:56.584Z,0
2017-12-26T06:17:06.526Z,0
2017-12-26T06:18:16.468Z,0
2017-12-26T06:19:26.415Z,0
2017-12-26T06:20:36.140Z,0
2017-12-26T06:21:46.079Z,0
2017-12-26T06:22:56.017Z,0
2017-12-26T06:24:05.711Z,0
2017-12-26T06:25:15.671Z,0
2017-12-26T06:26:25.622Z,0
2017-12-26T06:27:35.322Z,0
2017-12-26T06:28:44.765Z,0
2017-12-26T06:29:54.968Z,4
2017-12-26T06:31:04.926Z,0
2017-12-26T06:32:14.611Z,0
2017-12-26T06:33:24.562Z,0
2017-12-26T06:34:34.555Z,4
2017-12-26T06:35:44.243Z,0
2017-12-26T06:36:54.201Z,4
2017-12-26T06:38:04.149Z,4
2017-12-26T06:39:14.097Z,4
2017-12-26T06:40:24.100Z,4
2017-12-26T06:41:33.789Z,4
2017-12-26T06:42:43.506Z,8
2017-12-26T06:43:53.203Z,8
2017-12-26T06:45:03.162Z,12
2017-12-26T06:46:13.116Z,12
2017-12-26T06:47:22.819Z,12
2017-12-26T06:48:32.530Z,16
2017-12-26T06:49:42.474Z,20
2017-12-26T06:50:52.430Z,24
2017-12-26T06:52:02.123Z,28
2017-12-26T06:53:12.129Z,32
2017-12-26T06:54:22.079Z,36
2017-12-26T06:55:32.024Z,44
2017-12-26T06:56:41.966Z,56
2017-12-26T06:57:51.655Z,64
2017-12-26T06:59:01.613Z,76
2017-12-26T07:00:11.567Z,88
2017-12-26T07:01:21.520Z,100
2017-12-26T07:02:31.472Z,112
2017-12-26T07:03:41.418Z,128
2017-12-26T07:04:51.357Z,144
2017-12-26T07:06:01.297Z,164
2017-12-26T07:07:11.249Z,184
2017-12-26T07:08:20.945Z,208
2017-12-26T07:09:30.640Z,232
2017-12-26T07:10:40.338Z,260
2017-12-26T07:11:50.282Z,292
2017-12-26T07:13:00.245Z,324
2017-12-26T07:14:10.209Z,356
2017-12-26T07:15:19.660Z,396
2017-12-26T07:16:29.351Z,436
2017-12-26T07:17:39.031Z,484
2017-12-26T07:18:48.720Z,524
2017-12-26T07:19:58.409Z,572
2017-12-26T07:21:08.352Z,612
2017-12-26T07:22:18.357Z,652
2017-12-26T07:23:28.311Z,692
2017-12-26T07:24:38.321Z,744
2017-12-26T07:25:48.271Z,804
2017-12-26T07:26:57.949Z,884
2017-12-26T07:28:07.906Z,956
2017-12-26T07:29:17.868Z,1024
2017-12-26T07:30:27.829Z,1096
2017-12-26T07:31:37.774Z,1188
2017-12-26T07:32:47.480Z,1288
2017-12-26T07:33:57.425Z,1368
2017-12-26T07:35:07.372Z,1408
2017-12-26T07:36:16.817Z,1444
2017-12-26T07:37:26.514Z,1492
2017-12-26T07:38:36.207Z,1544
2017-12-26T07:39:45.904Z,1576
2017-12-26T07:40:55.609Z,1616
2017-12-26T07:42:05.039Z,1676
2017-12-26T07:43:14.979Z,1760
2017-12-26T07:44:24.416Z,1856
2017-12-26T07:45:34.368Z,1948
2017-12-26T07:46:44.328Z,2012
2017-12-26T07:47:54.288Z,2068
2017-12-26T07:49:04.261Z,2124
2017-12-26T07:50:14.427Z,2192
2017-12-26T07:51:24.129Z,2220
2017-12-26T07:52:34.083Z,2228
2017-12-26T07:53:44.028Z,2244
2017-12-26T07:54:53.709Z,2288
2017-12-26T07:56:03.653Z,2332
2017-12-26T07:57:13.668Z,2368
2017-12-26T07:58:23.368Z,2416
2017-12-26T07:59:33.067Z,2452
2017-12-26T08:00:43.019Z,2492
2017-12-26T08:01:52.973Z,2548
2017-12-26T08:03:02.935Z,2612
2017-12-26T08:04:12.881Z,2680
2017-12-26T08:05:22.838Z,2764
2017-12-26T08:06:32.788Z,2856
2017-12-26T08:07:42.495Z,2964
2017-12-26T08:08:52.445Z,3104
2017-12-26T08:10:02.408Z,3260
2017-12-26T08:11:12.105Z,3420
2017-12-26T08:12:21.813Z,3596
2017-12-26T08:13:31.503Z,3752
2017-12-26T08:14:41.191Z,3836
2017-12-26T08:15:51.145Z,3916
2017-12-26T08:17:01.084Z,3996
2017-12-26T08:18:11.109Z,4152
2017-12-26T08:19:20.807Z,4184
2017-12-26T08:20:30.504Z,4252
2017-12-26T08:21:40.454Z,4208
2017-12-26T08:22:49.628Z,4144
2017-12-26T08:23:59.627Z,4184
2017-12-26T08:25:09.313Z,4184
2017-12-26T08:26:19.266Z,4180
2017-12-26T08:27:29.213Z,4108
2017-12-26T08:28:38.643Z,4364
2017-12-26T08:29:48.582Z,4568
2017-12-26T08:30:58.572Z,5032
2017-12-26T08:32:08.526Z,5180
2017-12-26T08:33:18.214Z,5368
2017-12-26T08:34:28.174Z,5352
2017-12-26T08:35:38.133Z,5816
2017-12-26T08:36:48.106Z,5592
2017-12-26T08:37:58.060Z,5248
2017-12-26T08:39:08.011Z,5160
2017-12-26T08:40:17.981Z,5116
2017-12-26T08:41:27.945Z,5004
2017-12-26T08:42:37.897Z,4900
2017-12-26T08:43:47.872Z,4884
2017-12-26T08:44:57.829Z,5052
2017-12-26T08:46:07.517Z,5192
2017-12-26T08:47:17.475Z,5260
2017-12-26T08:48:27.427Z,5308
2017-12-26T08:49:37.120Z,5328
2017-12-26T08:50:47.077Z,5352
2017-12-26T08:51:57.092Z,5364
2017-12-26T08:53:06.790Z,5380
2017-12-26T08:54:16.484Z,5480
2017-12-26T08:55:26.430Z,5616
2017-12-26T08:56:36.383Z,5808
2017-12-26T08:57:46.336Z,6028
2017-12-26T08:58:56.028Z,6148
2017-12-26T09:00:05.985Z,6300
2017-12-26T09:01:15.941Z,6392
2017-12-26T09:02:25.909Z,6408
2017-12-26T09:03:35.602Z,6496
2017-12-26T09:04:45.288Z,6876
2017-12-26T09:05:55.242Z,7388
2017-12-26T09:07:04.676Z,7656
2017-12-26T09:08:14.127Z,7944
2017-12-26T09:09:24.082Z,7588
2017-12-26T09:10:34.037Z,7292
2017-12-26T09:11:43.749Z,7100
2017-12-26T09:12:53.699Z,7156
2017-12-26T09:14:03.391Z,7188
2017-12-26T09:15:13.089Z,7052
2017-12-26T09:16:22.781Z,6932
2017-12-26T09:17:32.738Z,6964
2017-12-26T09:18:42.707Z,7012
2017-12-26T09:19:52.418Z,7056
2017-12-26T09:21:02.379Z,7200
2017-12-26T09:22:12.333Z,7524
2017-12-26T09:23:22.024Z,7964
2017-12-26T09:24:31.714Z,8792
2017-12-26T09:25:41.162Z,10112
2017-12-26T09:26:51.113Z,10988
2017-12-26T09:28:01.059Z,13332
2017-12-26T09:29:10.760Z,17408
2017-12-26T09:30:20.462Z,13472
2017-12-26T09:31:29.902Z,15776
2017-12-26T09:32:39.873Z,18368
2017-12-26T09:33:49.812Z,14404
2017-12-26T09:34:59.535Z,12936
2017-12-26T09:36:09.496Z,14552
2017-12-26T09:37:19.451Z,16832
2017-12-26T09:38:29.149Z,27008
2017-12-26T09:39:39.096Z,27584
2017-12-26T09:40:48.876Z,24736
2017-12-26T09:41:58.821Z,24576
2017-12-26T09:43:08.767Z,21312
2017-12-26T09:44:18.470Z,23520
2017-12-26T09:45:28.424Z,21152
2017-12-26T09:46:38.442Z,20096
2017-12-26T09:47:48.397Z,25440
2017-12-26T09:48:58.358Z,29600
2017-12-26T09:50:08.334Z,27520
2017-12-26T09:51:18.288Z,33440
2017-12-26T09:52:28.239Z,29184
2017-12-26T09:53:38.196Z,23200
2017-12-26T09:54:47.628Z,24320
2017-12-26T09:55:57.333Z,32288
2017-12-26T09:57:07.021Z,34944
2017-12-26T09:58:16.973Z,31136
2017-12-26T09:59:26.960Z,29920
2017-12-26T10:00:36.921Z,33376
2017-12-26T10:01:46.893Z,32352
2017-12-26T10:02:56.862Z,38208
2017-12-26T10:04:06.813Z,40128
2017-12-26T10:05:16.793Z,39552
2017-12-26T10:06:26.499Z,31680
2017-12-26T10:07:36.461Z,29568
2017-12-26T10:08:46.431Z,33888
2017-12-26T10:09:56.388Z,35520
2017-12-26T10:11:06.089Z,38272
2017-12-26T10:12:15.815Z,45120
2017-12-26T10:13:25.797Z,40992
2017-12-26T10:14:35.250Z,41248
2017-12-26T10:15:45.215Z,45504
2017-12-26T10:16:55.190Z,53728
2017-12-26T10:18:05.155Z,58336
2017-12-26T10:19:14.862Z,58976
2017-12-26T10:20:24.818Z,57504
2017-12-26T10:21:34.506Z,58176
2017-12-26T10:22:44.472Z,55808
2017-12-26T10:23:54.434Z,56320
2017-12-26T10:25:04.389Z,57664
2017-12-26T10:26:14.364Z,55392
2017-12-26T10:27:24.077Z,59904
2017-12-26T10:28:33.779Z,56576
2017-12-26T10:29:43.754Z,57952
2017-12-26T10:30:53.722Z,59072
2017-12-26T10:32:03.691Z,59488
2017-12-26T10:33:13.671Z,48544
2017-12-26T10:34:23.643Z,52224
2017-12-26T10:35:33.637Z,58400
2017-12-26T10:36:43.349Z,59104
2017-12-26T10:37:53.307Z,59104
2017-12-26T10:39:03.292Z,61728
2017-12-26T10:40:13.327Z,62272
2017-12-26T10:41:23.302Z,62592
2017-12-26T10:42:32.508Z,61696
2017-12-26T10:43:42.231Z,62176
2017-12-26T10:44:51.975Z,61728
2017-12-26T10:46:01.946Z,62496
2017-12-26T10:47:11.660Z,62912
2017-12-26T10:48:21.656Z,63968
2017-12-26T10:49:31.379Z,60736
2017-12-26T10:50:41.364Z,65056
2017-12-26T10:51:51.323Z,67328
2017-12-26T10:53:01.305Z,66784
2017-12-26T10:54:11.282Z,67040
2017-12-26T10:55:21.277Z,61824
2017-12-26T10:56:31.242Z,66976
2017-12-26T10:57:41.242Z,55904
2017-12-26T10:58:50.973Z,65632
2017-12-26T11:00:00.436Z,67616
2017-12-26T11:01:10.415Z,68512
2017-12-26T11:02:20.121Z,60352
2017-12-26T11:03:30.108Z,65472
2017-12-26T11:04:39.823Z,61920
2017-12-26T11:05:49.550Z,63424
2017-12-26T11:06:59.522Z,62464
2017-12-26T11:08:08.994Z,60320
2017-12-26T11:09:18.711Z,62976
2017-12-26T11:10:28.694Z,55040
2017-12-26T11:11:38.416Z,54400
2017-12-26T11:12:48.410Z,56544
2017-12-26T11:13:58.384Z,59168
2017-12-26T11:15:08.112Z,59488
2017-12-26T11:16:18.098Z,59104
2017-12-26T11:17:28.084Z,59296
2017-12-26T11:18:38.063Z,66688
2017-12-26T11:19:48.062Z,62816
2017-12-26T11:20:58.041Z,58656
2017-12-26T11:22:08.018Z,62592
2017-12-26T11:23:17.998Z,57728
2017-12-26T11:24:27.988Z,59616
2017-12-26T11:25:37.981Z,62496
2017-12-26T11:26:48.120Z,59424
2017-12-26T11:27:58.097Z,63840
2017-12-26T11:29:08.093Z,70400
2017-12-26T11:30:18.069Z,56032
2017-12-26T11:31:28.128Z,62816
2017-12-26T11:32:38.098Z,59168
2017-12-26T11:33:48.075Z,69856
2017-12-26T11:34:58.068Z,65504
2017-12-26T11:36:07.803Z,66816
2017-12-26T11:37:17.812Z,65824
2017-12-26T11:38:27.788Z,65408
2017-12-26T11:39:37.787Z,67904
2017-12-26T11:40:47.777Z,67872
2017-12-26T11:41:57.767Z,64896
2017-12-26T11:43:07.746Z,67040
2017-12-26T11:44:17.735Z,66816
2017-12-26T11:45:27.204Z,68672
2017-12-26T11:46:37.177Z,68000
2017-12-26T11:47:47.166Z,68128
2017-12-26T11:48:56.680Z,66912
2017-12-26T11:50:06.661Z,64768
2017-12-26T11:51:16.649Z,67328
2017-12-26T11:52:26.626Z,67904
2017-12-26T11:53:36.601Z,70080
2017-12-26T11:54:46.584Z,70368
2017-12-26T11:55:56.366Z,68640
2017-12-26T11:57:06.101Z,69728
2017-12-26T11:58:16.088Z,68928
2017-12-26T11:59:26.076Z,66176
2017-12-26T12:00:36.058Z,65536
2017-12-26T12:01:46.047Z,68320
2017-12-26T12:02:55.758Z,64480
2017-12-26T12:04:05.748Z,67424
2017-12-26T12:05:15.710Z,62528
2017-12-26T12:06:25.433Z,57472
2017-12-26T12:07:35.412Z,67616
2017-12-26T12:08:45.426Z,21792
2017-12-26T12:09:55.407Z,20480
2017-12-26T12:11:05.404Z,29760
2017-12-26T12:12:15.138Z,15696
2017-12-26T12:13:25.147Z,13612
2017-12-26T12:14:34.873Z,12964
2017-12-26T12:15:44.612Z,11576
2017-12-26T12:16:54.618Z,11748
2017-12-26T12:18:04.418Z,13172
2017-12-26T12:19:14.424Z,36032
2017-12-26T12:20:24.424Z,12976
2017-12-26T12:21:34.419Z,11884
2017-12-26T12:22:44.151Z,10404
2017-12-26T12:23:54.125Z,8512
2017-12-26T12:25:03.848Z,7796
2017-12-26T12:26:13.571Z,7280
2017-12-26T12:27:23.023Z,7140
2017-12-26T12:28:33.006Z,7688
2017-12-26T12:29:42.740Z,9268
2017-12-26T12:30:52.762Z,13276
2017-12-26T12:32:02.728Z,13964
2017-12-26T12:33:12.696Z,14820
2017-12-26T12:34:22.676Z,13764
2017-12-26T12:35:32.647Z,13852
2017-12-26T12:36:42.628Z,13952
2017-12-26T12:37:52.347Z,12952
2017-12-26T12:39:02.323Z,9936
2017-12-26T12:40:12.303Z,8444
2017-12-26T12:41:22.026Z,7956
2017-12-26T12:42:33.506Z,8092
2017-12-26T12:43:43.225Z,8056
2017-12-26T12:44:52.936Z,6996
2017-12-26T12:46:02.917Z,7080
2017-12-26T12:47:12.633Z,6828
2017-12-26T12:48:22.630Z,5928
2017-12-26T12:49:32.663Z,5280
2017-12-26T12:50:42.147Z,4528
2017-12-26T12:51:51.866Z,4064
2017-12-26T12:53:01.856Z,3688
2017-12-26T12:54:11.312Z,3296
2017-12-26T12:55:21.041Z,3364
2017-12-26T12:56:30.785Z,3304
2017-12-26T12:57:40.750Z,2852
2017-12-26T12:58:50.474Z,2780
2017-12-26T13:00:00.190Z,2884
2017-12-26T13:01:10.175Z,2852
2017-12-26T13:02:19.887Z,2500
2017-12-26T13:03:29.877Z,2112
2017-12-26T13:04:39.716Z,2028
2017-12-26T13:05:49.759Z,1808
2017-12-26T13:06:59.496Z,1960
2017-12-26T13:08:09.204Z,2244
2017-12-26T13:09:18.970Z,2004
2017-12-26T13:10:28.680Z,1844
2017-12-26T13:11:38.659Z,2248
2017-12-26T13:12:48.637Z,2956
2017-12-26T13:13:58.607Z,3912
2017-12-26T13:15:08.593Z,4304
2017-12-26T13:16:18.563Z,4420
2017-12-26T13:17:28.007Z,4480
2017-12-26T13:18:37.977Z,5312
2017-12-26T13:19:47.695Z,6812
2017-12-26T13:20:57.413Z,7912
2017-12-26T13:22:07.131Z,8304
2017-12-26T13:23:17.106Z,8196
2017-12-26T13:24:26.822Z,8124
2017-12-26T13:25:36.806Z,7336
2017-12-26T13:26:46.779Z,6176
2017-12-26T13:27:56.499Z,5980
2017-12-26T13:29:06.227Z,8032
2017-12-26T13:30:16.206Z,8132
2017-12-26T13:31:26.190Z,5844
2017-12-26T13:32:36.159Z,3636
2017-12-26T13:33:46.127Z,2616
2017-12-26T13:34:55.850Z,2232
2017-12-26T13:36:05.813Z,1640
2017-12-26T13:37:15.780Z,1480
2017-12-26T13:38:25.496Z,1352
2017-12-26T13:39:35.203Z,1360
2017-12-26T13:40:45.213Z,1180
2017-12-26T13:41:55.164Z,984
2017-12-26T13:43:05.133Z,952
2017-12-26T13:44:14.830Z,872
2017-12-26T13:45:24.800Z,824
2017-12-26T13:46:34.760Z,884
2017-12-26T13:47:44.715Z,816
2017-12-26T13:48:54.670Z,732
2017-12-26T13:50:04.376Z,600
2017-12-26T13:51:14.133Z,560
2017-12-26T13:52:24.106Z,568
2017-12-26T13:53:34.062Z,584
2017-12-26T13:54:44.026Z,608
2017-12-26T13:55:53.986Z,616
2017-12-26T13:57:03.691Z,552
2017-12-26T13:58:13.380Z,520
2017-12-26T13:59:23.361Z,536
2017-12-26T14:00:33.321Z,596
2017-12-26T14:01:43.272Z,608
2017-12-26T14:02:53.227Z,508
2017-12-26T14:04:03.185Z,464
2017-12-26T14:05:13.160Z,412
2017-12-26T14:06:22.874Z,356
2017-12-26T14:07:32.572Z,296
2017-12-26T14:08:42.543Z,268
2017-12-26T14:09:52.504Z,260
2017-12-26T14:11:02.479Z,268
2017-12-26T14:12:12.188Z,280
2017-12-26T14:13:21.881Z,256
2017-12-26T14:14:31.836Z,224
2017-12-26T14:15:41.283Z,188
2017-12-26T14:16:50.974Z,172
2017-12-26T14:18:00.935Z,152
2017-12-26T14:19:10.892Z,148
2017-12-26T14:20:20.602Z,160
2017-12-26T14:21:30.562Z,156
2017-12-26T14:22:40.543Z,180
2017-12-26T14:23:50.501Z,192
2017-12-26T14:25:00.479Z,220
2017-12-26T14:26:10.448Z,216
2017-12-26T14:27:20.456Z,192
2017-12-26T14:28:30.152Z,180
2017-12-26T14:29:40.114Z,144
2017-12-26T14:30:50.071Z,136
2017-12-26T14:32:00.037Z,144
2017-12-26T14:33:09.761Z,140
2017-12-26T14:34:19.713Z,136
2017-12-26T14:35:29.659Z,140
2017-12-26T14:36:39.361Z,136
2017-12-26T14:37:49.062Z,140
2017-12-26T14:38:59.028Z,124
2017-12-26T14:40:08.735Z,124
2017-12-26T14:41:18.181Z,120
2017-12-26T14:42:27.625Z,116
2017-12-26T14:43:37.591Z,104
2017-12-26T14:44:47.037Z,88
2017-12-26T14:45:57.106Z,80
2017-12-26T14:47:06.807Z,80
2017-12-26T14:48:16.241Z,76
2017-12-26T14:49:26.205Z,72
2017-12-26T14:50:36.168Z,76
2017-12-26T14:51:46.124Z,92
2017-12-26T14:52:56.072Z,104
2017-12-26T14:54:05.759Z,108
2017-12-26T14:55:15.713Z,112
2017-12-26T14:56:25.410Z,108
2017-12-26T14:57:35.100Z,108
2017-12-26T14:58:45.071Z,116
2017-12-26T14:59:55.029Z,116
2017-12-26T15:01:04.721Z,116
2017-12-26T15:02:14.412Z,108
2017-12-26T15:03:24.382Z,100
2017-12-26T15:04:34.347Z,88
2017-12-26T15:05:44.318Z,88
2017-12-26T15:06:54.075Z,84
2017-12-26T15:08:03.788Z,80
2017-12-26T15:09:13.995Z,72
2017-12-26T15:10:23.956Z,56
2017-12-26T15:11:33.902Z,44
2017-12-26T15:12:43.627Z,36
2017-12-26T15:13:53.582Z,28
2017-12-26T15:15:03.270Z,20
2017-12-26T15:16:12.978Z,20
2017-12-26T15:17:22.939Z,16
2017-12-26T15:18:32.622Z,12
2017-12-26T15:19:42.596Z,12
2017-12-26T15:20:52.301Z,12
2017-12-26T15:22:02.257Z,8
2017-12-26T15:23:12.221Z,8
2017-12-26T15:24:21.916Z,8
2017-12-26T15:25:31.614Z,4
2017-12-26T15:26:41.567Z,4
2017-12-26T15:27:51.550Z,4
2017-12-26T15:29:01.507Z,4
2017-12-26T15:30:11.483Z,0
2017-12-26T15:31:21.480Z,0
2017-12-26T15:32:31.176Z,0
2017-12-26T15:33:41.141Z,0
2017-12-26T15:34:50.842Z,0
2017-12-26T15:36:00.782Z,0
2017-12-26T15:37:10.746Z,0
2017-12-26T15:38:20.448Z,0
2017-12-26T15:39:30.149Z,0
2017-12-26T15:40:39.849Z,0
2017-12-26T15:41:49.538Z,0
2017-12-26T15:42:59.492Z,0
2017-12-26T15:44:09.302Z,0
2017-12-26T15:45:19.274Z,0
2017-12-26T15:46:28.985Z,0
2017-12-26T15:47:38.939Z,0
2017-12-26T15:48:48.899Z,0
2017-12-26T15:49:58.851Z,0
2017-12-26T15:51:08.556Z,0
2017-12-26T15:52:18.522Z,0
2017-12-26T15:53:28.483Z,0
2017-12-26T15:54:38.452Z,0
2017-12-26T15:55:48.421Z,0
2017-12-26T15:56:58.405Z,0
2017-12-26T15:58:08.362Z,0
2017-12-26T15:59:17.858Z,0
2017-12-26T16:00:27.817Z,0
2017-12-26T16:01:37.802Z,0
2017-12-26T16:02:47.500Z,0
2017-12-26T16:03:57.198Z,0
2017-12-26T16:05:06.645Z,0
2017-12-26T16:06:15.842Z,0
2017-12-26T16:07:25.533Z,0
2017-12-26T16:08:35.504Z,0
2017-12-26T16:09:45.463Z,0
2017-12-26T16:10:55.422Z,0
2017-12-26T16:12:04.878Z,0
2017-12-26T16:13:14.830Z,0
2017-12-26T16:14:24.812Z,0
2017-12-26T16:15:34.772Z,0